createdAt,value
2019-02-22T00:00:05.410Z,0
2019-02-22T00:01:20.139Z,0
2019-02-22T00:02:05.389Z,0
2019-02-22T00:04:05.444Z,0
2019-02-22T00:05:05.450Z,0
2019-02-22T00:06:20.155Z,0
2019-02-22T00:07:05.581Z,0
2019-02-22T00:08:05.508Z,0
2019-02-22T00:09:05.522Z,0
2019-02-22T00:10:05.565Z,0
2019-02-22T00:11:20.225Z,0
2019-02-22T00:12:05.569Z,0
2019-02-22T00:13:05.582Z,0
2019-02-22T00:14:05.600Z,0
2019-02-22T00:15:20.291Z,0
2019-02-22T00:16:05.712Z,0
2019-02-22T00:17:20.317Z,0
2019-02-22T00:19:20.350Z,0
2019-02-22T00:20:05.705Z,0
2019-02-22T00:21:05.735Z,0
2019-02-22T00:22:05.847Z,0
2019-02-22T00:23:05.777Z,0
2019-02-22T00:24:05.780Z,0
2019-02-22T00:25:20.453Z,0
2019-02-22T00:26:05.876Z,0
2019-02-22T00:27:05.938Z,0
2019-02-22T00:28:05.842Z,0
2019-02-22T00:29:05.898Z,0
2019-02-22T00:30:05.877Z,0
2019-02-22T00:31:06.008Z,0
2019-02-22T00:32:05.915Z,0
2019-02-22T00:33:05.943Z,0
2019-02-22T00:34:06.093Z,0
2019-02-22T00:35:06.153Z,0
2019-02-22T00:36:06.125Z,0
2019-02-22T00:37:06.302Z,0
2019-02-22T00:40:06.053Z,0
2019-02-22T00:41:20.736Z,0
2019-02-22T00:42:06.096Z,0
2019-02-22T00:43:06.105Z,0
2019-02-22T00:44:06.123Z,0
2019-02-22T00:45:06.141Z,0
2019-02-22T00:46:05.904Z,0
2019-02-22T00:47:06.167Z,0
2019-02-22T00:48:06.209Z,0
2019-02-22T00:49:06.204Z,0
2019-02-22T00:50:20.889Z,0
2019-02-22T00:51:20.913Z,0
2019-02-22T00:52:06.259Z,0
2019-02-22T00:53:06.295Z,0
2019-02-22T00:54:06.290Z,0
2019-02-22T00:55:06.352Z,0
2019-02-22T00:56:06.325Z,0
2019-02-22T00:57:21.011Z,0
2019-02-22T00:58:06.111Z,0
2019-02-22T00:59:06.376Z,0
2019-02-22T01:00:06.397Z,0
2019-02-22T01:01:06.412Z,0
2019-02-22T01:03:06.448Z,0
2019-02-22T01:04:06.477Z,0
2019-02-22T01:05:06.498Z,0
2019-02-22T01:06:06.498Z,0
2019-02-22T01:07:06.526Z,0
2019-02-22T01:08:21.219Z,0
2019-02-22T01:09:06.651Z,0
2019-02-22T01:10:06.574Z,0
2019-02-22T01:12:06.600Z,0
2019-02-22T01:13:21.286Z,0
2019-02-22T01:14:06.651Z,0
2019-02-22T01:15:06.670Z,0
2019-02-22T01:16:06.669Z,0
2019-02-22T01:17:06.731Z,0
2019-02-22T01:18:06.798Z,0
2019-02-22T01:19:06.732Z,0
2019-02-22T01:20:06.784Z,0
2019-02-22T01:22:06.774Z,0
2019-02-22T01:23:06.789Z,0
2019-02-22T01:24:06.915Z,0
2019-02-22T01:26:21.508Z,0
2019-02-22T01:27:06.862Z,0
2019-02-22T01:28:21.544Z,0
2019-02-22T01:29:06.896Z,0
2019-02-22T01:30:06.910Z,0
2019-02-22T01:31:06.935Z,0
2019-02-22T01:32:06.983Z,0
2019-02-22T01:33:06.977Z,0
2019-02-22T01:34:06.978Z,0
2019-02-22T01:35:07.009Z,0
2019-02-22T01:36:07.016Z,0
2019-02-22T01:37:07.041Z,0
2019-02-22T01:38:07.046Z,0
2019-02-22T01:39:07.074Z,0
2019-02-22T01:40:07.339Z,0
2019-02-22T01:41:07.169Z,0
2019-02-22T01:42:07.114Z,0
2019-02-22T01:43:07.147Z,0
2019-02-22T01:44:07.154Z,0
2019-02-22T01:45:22.081Z,0
2019-02-22T01:46:07.197Z,0
2019-02-22T01:47:07.217Z,0
2019-02-22T01:48:07.229Z,0
2019-02-22T01:49:07.299Z,0
2019-02-22T01:50:07.463Z,0
2019-02-22T01:51:07.294Z,0
2019-02-22T01:52:07.290Z,0
2019-02-22T01:53:21.966Z,0
2019-02-22T01:54:07.324Z,0
2019-02-22T01:55:22.126Z,0
2019-02-22T01:56:07.368Z,0
2019-02-22T01:57:22.033Z,0
2019-02-22T01:58:07.391Z,0
2019-02-22T01:59:07.412Z,0
2019-02-22T02:00:22.089Z,0
2019-02-22T02:01:07.449Z,0
2019-02-22T02:02:07.467Z,0
2019-02-22T02:04:07.497Z,0
2019-02-22T02:05:07.608Z,0
2019-02-22T02:07:07.582Z,0
2019-02-22T02:08:07.558Z,0
2019-02-22T02:09:07.580Z,0
2019-02-22T02:10:07.591Z,0
2019-02-22T02:11:07.608Z,0
2019-02-22T02:12:09.139Z,0
2019-02-22T02:13:07.645Z,0
2019-02-22T02:14:07.667Z,0
2019-02-22T02:15:07.684Z,0
2019-02-22T02:16:22.521Z,0
2019-02-22T02:18:22.415Z,0
2019-02-22T02:19:07.749Z,0
2019-02-22T02:20:08.452Z,0
2019-02-22T02:21:07.801Z,0
2019-02-22T02:22:07.795Z,0
2019-02-22T02:23:07.819Z,0
2019-02-22T02:24:07.831Z,0
2019-02-22T02:26:07.872Z,0
2019-02-22T02:28:22.565Z,0
2019-02-22T02:29:07.926Z,0
2019-02-22T02:30:08.074Z,0
2019-02-22T02:31:07.962Z,0
2019-02-22T02:32:22.631Z,0
2019-02-22T02:33:07.999Z,0
2019-02-22T02:34:08.039Z,0
2019-02-22T02:35:08.098Z,0
2019-02-22T02:36:08.050Z,0
2019-02-22T02:37:08.073Z,0
2019-02-22T02:38:08.193Z,0
2019-02-22T02:39:08.104Z,0
2019-02-22T02:40:08.150Z,0
2019-02-22T02:41:17.012Z,0
2019-02-22T02:42:08.152Z,0
2019-02-22T02:43:08.270Z,0
2019-02-22T02:44:07.936Z,0
2019-02-22T02:45:08.223Z,0
2019-02-22T02:46:08.215Z,0
2019-02-22T02:47:08.229Z,0
2019-02-22T02:48:37.576Z,0
2019-02-22T02:49:08.322Z,0
2019-02-22T02:50:08.385Z,0
2019-02-22T02:51:08.294Z,0
2019-02-22T02:52:08.309Z,0
2019-02-22T02:53:08.329Z,0
2019-02-22T02:54:08.350Z,0
2019-02-22T02:55:08.365Z,0
2019-02-22T02:56:23.078Z,0
2019-02-22T02:57:23.062Z,0
2019-02-22T02:59:23.091Z,0
2019-02-22T03:00:08.454Z,0
2019-02-22T03:01:08.500Z,0
2019-02-22T03:03:37.829Z,0
2019-02-22T03:04:08.536Z,0
2019-02-22T03:05:08.612Z,0
2019-02-22T03:06:23.218Z,0
2019-02-22T03:07:08.566Z,0
2019-02-22T03:08:23.250Z,0
2019-02-22T03:09:23.266Z,0
2019-02-22T03:10:08.646Z,0
2019-02-22T03:11:20.010Z,0
2019-02-22T03:12:08.660Z,0
2019-02-22T03:13:08.672Z,0
2019-02-22T03:14:08.712Z,0
2019-02-22T03:15:23.377Z,0
2019-02-22T03:16:08.777Z,0
2019-02-22T03:17:08.739Z,0
2019-02-22T03:18:08.788Z,0
2019-02-22T03:19:08.776Z,0
2019-02-22T03:20:08.800Z,0
2019-02-22T03:21:08.918Z,0
2019-02-22T03:22:23.490Z,0
2019-02-22T03:23:08.838Z,0
2019-02-22T03:24:08.857Z,0
2019-02-22T03:25:08.886Z,0
2019-02-22T03:26:08.986Z,0
2019-02-22T03:27:08.904Z,0
2019-02-22T03:28:08.940Z,0
2019-02-22T03:30:23.647Z,0
2019-02-22T03:31:09.046Z,0
2019-02-22T03:32:08.844Z,0
2019-02-22T03:33:23.692Z,0
2019-02-22T03:34:09.372Z,0
2019-02-22T03:35:23.714Z,0
2019-02-22T03:36:09.059Z,0
2019-02-22T03:37:09.076Z,0
2019-02-22T03:38:10.823Z,0
2019-02-22T03:39:09.113Z,0
2019-02-22T03:40:09.143Z,0
2019-02-22T03:41:09.148Z,0
2019-02-22T03:42:09.155Z,0
2019-02-22T03:43:09.186Z,0
2019-02-22T03:44:08.944Z,0
2019-02-22T03:45:09.228Z,0
2019-02-22T03:46:23.893Z,0
2019-02-22T03:47:23.903Z,0
2019-02-22T03:48:09.279Z,0
2019-02-22T03:49:09.283Z,0
2019-02-22T03:51:23.982Z,0
2019-02-22T03:52:09.422Z,0
2019-02-22T03:53:09.344Z,0
2019-02-22T03:54:09.361Z,0
2019-02-22T03:55:09.391Z,0
2019-02-22T03:56:09.401Z,0
2019-02-22T03:57:09.408Z,0
2019-02-22T03:58:24.089Z,0
2019-02-22T03:59:09.466Z,0
2019-02-22T04:00:24.125Z,0
2019-02-22T04:01:09.479Z,0
2019-02-22T04:02:24.166Z,0
2019-02-22T04:03:09.516Z,0
2019-02-22T04:04:09.551Z,0
2019-02-22T04:05:09.569Z,0
2019-02-22T04:06:09.564Z,0
2019-02-22T04:07:24.238Z,0
2019-02-22T04:08:11.960Z,0
2019-02-22T04:09:09.613Z,0
2019-02-22T04:10:09.630Z,0
2019-02-22T04:11:09.660Z,0
2019-02-22T04:12:09.663Z,0
2019-02-22T04:13:09.670Z,0
2019-02-22T04:15:09.711Z,0
2019-02-22T04:16:09.719Z,0
2019-02-22T04:17:24.418Z,0
2019-02-22T04:18:09.761Z,0
2019-02-22T04:19:24.529Z,0
2019-02-22T04:20:09.793Z,0
2019-02-22T04:21:09.802Z,0
2019-02-22T04:22:09.903Z,0
2019-02-22T04:23:24.497Z,0
2019-02-22T04:24:09.852Z,0
2019-02-22T04:25:09.911Z,0
2019-02-22T04:27:09.910Z,0
2019-02-22T04:29:24.595Z,0
2019-02-22T04:30:09.950Z,0
2019-02-22T04:31:09.971Z,0
2019-02-22T04:32:09.980Z,0
2019-02-22T04:33:10.021Z,0
2019-02-22T04:34:10.017Z,0
2019-02-22T04:36:10.085Z,0
2019-02-22T04:37:10.073Z,0
2019-02-22T04:38:24.740Z,0
2019-02-22T04:39:10.103Z,0
2019-02-22T04:40:10.111Z,0
2019-02-22T04:41:10.127Z,0
2019-02-22T04:42:10.140Z,0
2019-02-22T04:43:10.156Z,0
2019-02-22T04:44:10.173Z,0
2019-02-22T04:45:10.189Z,0
2019-02-22T04:46:10.305Z,0
2019-02-22T04:47:10.247Z,0
2019-02-22T04:49:10.260Z,0
2019-02-22T04:50:10.391Z,0
2019-02-22T04:51:10.282Z,0
2019-02-22T04:52:10.297Z,0
2019-02-22T04:53:10.318Z,0
2019-02-22T04:54:10.335Z,0
2019-02-22T04:55:10.106Z,0
2019-02-22T04:56:25.079Z,0
2019-02-22T04:57:10.383Z,0
2019-02-22T04:58:10.394Z,0
2019-02-22T04:59:10.424Z,0
2019-02-22T05:00:10.420Z,0
2019-02-22T05:01:10.444Z,0
2019-02-22T05:03:10.475Z,0
2019-02-22T05:04:10.488Z,0
2019-02-22T05:05:10.503Z,0
2019-02-22T05:06:10.512Z,0
2019-02-22T05:07:10.535Z,0
2019-02-22T05:08:10.555Z,0
2019-02-22T05:10:25.242Z,0
2019-02-22T05:11:25.269Z,0
2019-02-22T05:12:18.034Z,0
2019-02-22T05:13:10.661Z,0
2019-02-22T05:14:10.641Z,0
2019-02-22T05:15:20.034Z,0
2019-02-22T05:16:10.677Z,0
2019-02-22T05:17:10.690Z,0
2019-02-22T05:18:10.712Z,0
2019-02-22T05:19:10.728Z,0
2019-02-22T05:20:10.759Z,0
2019-02-22T05:21:25.407Z,0
2019-02-22T05:22:10.776Z,0
2019-02-22T05:23:14.420Z,0
2019-02-22T05:24:10.866Z,0
2019-02-22T05:25:10.828Z,0
2019-02-22T05:26:40.154Z,0
2019-02-22T05:27:11.047Z,0
2019-02-22T05:28:10.691Z,0
2019-02-22T05:29:10.895Z,0
2019-02-22T05:30:10.923Z,0
2019-02-22T05:31:25.677Z,0
2019-02-22T05:32:10.920Z,0
2019-02-22T05:33:10.945Z,0
2019-02-22T05:34:10.959Z,0
2019-02-22T05:35:10.962Z,0
2019-02-22T05:36:25.637Z,0
2019-02-22T05:38:11.011Z,0
2019-02-22T05:39:23.357Z,0
2019-02-22T05:40:11.090Z,0
2019-02-22T05:41:11.049Z,0
2019-02-22T05:42:28.648Z,0
2019-02-22T05:43:11.085Z,0
2019-02-22T05:44:10.862Z,4
2019-02-22T05:45:11.111Z,0
2019-02-22T05:47:11.144Z,0
2019-02-22T05:48:11.160Z,4
2019-02-22T05:49:11.280Z,0
2019-02-22T05:50:25.871Z,4
2019-02-22T05:51:11.219Z,4
2019-02-22T05:52:11.217Z,4
2019-02-22T05:53:11.254Z,4
2019-02-22T05:54:11.269Z,8
2019-02-22T05:55:11.265Z,4
2019-02-22T05:56:25.947Z,8
2019-02-22T05:57:14.022Z,8
2019-02-22T05:58:25.969Z,8
2019-02-22T05:59:11.320Z,12
2019-02-22T06:00:11.355Z,12
2019-02-22T06:01:13.956Z,16
2019-02-22T06:02:14.118Z,16
2019-02-22T06:03:11.485Z,20
2019-02-22T06:04:11.397Z,20
2019-02-22T06:05:11.422Z,20
2019-02-22T06:06:11.434Z,20
2019-02-22T06:07:14.234Z,20
2019-02-22T06:08:26.118Z,24
2019-02-22T06:09:26.147Z,28
2019-02-22T06:10:26.145Z,28
2019-02-22T06:11:11.596Z,32
2019-02-22T06:12:11.526Z,32
2019-02-22T06:13:26.277Z,36
2019-02-22T06:14:11.563Z,36
2019-02-22T06:15:11.561Z,40
2019-02-22T06:16:11.574Z,44
2019-02-22T06:18:11.604Z,48
2019-02-22T06:19:11.839Z,56
2019-02-22T06:20:26.293Z,52
2019-02-22T06:21:26.307Z,56
2019-02-22T06:22:11.668Z,60
2019-02-22T06:23:11.681Z,60
2019-02-22T06:24:11.691Z,64
2019-02-22T06:25:11.728Z,76
2019-02-22T06:26:11.764Z,84
2019-02-22T06:27:11.499Z,92
2019-02-22T06:28:11.751Z,96
2019-02-22T06:30:11.774Z,116
2019-02-22T06:31:11.910Z,120
2019-02-22T06:32:11.811Z,124
2019-02-22T06:33:11.833Z,124
2019-02-22T06:34:11.842Z,128
2019-02-22T06:35:13.823Z,132
2019-02-22T06:36:11.872Z,136
2019-02-22T06:37:11.964Z,152
2019-02-22T06:38:12.000Z,148
2019-02-22T06:39:11.925Z,160
2019-02-22T06:40:26.606Z,168
2019-02-22T06:41:11.979Z,164
2019-02-22T06:42:11.953Z,176
2019-02-22T06:43:11.979Z,180
2019-02-22T06:44:14.318Z,184
2019-02-22T06:45:26.663Z,200
2019-02-22T06:46:12.008Z,204
2019-02-22T06:47:26.701Z,212
2019-02-22T06:48:12.095Z,220
2019-02-22T06:49:12.056Z,224
2019-02-22T06:50:12.073Z,224
2019-02-22T06:51:12.079Z,232
2019-02-22T06:52:26.758Z,268
2019-02-22T06:53:12.229Z,264
2019-02-22T06:54:12.167Z,272
2019-02-22T06:55:12.135Z,292
2019-02-22T06:56:26.829Z,288
2019-02-22T06:57:12.165Z,300
2019-02-22T06:58:14.258Z,344
2019-02-22T06:59:12.255Z,416
2019-02-22T07:00:12.217Z,464
2019-02-22T07:01:26.883Z,460
2019-02-22T07:02:12.241Z,452
2019-02-22T07:03:12.261Z,448
2019-02-22T07:04:12.277Z,452
2019-02-22T07:05:12.278Z,468
2019-02-22T07:06:12.970Z,492
2019-02-22T07:07:12.306Z,496
2019-02-22T07:09:12.092Z,532
2019-02-22T07:10:12.368Z,624
2019-02-22T07:11:12.402Z,704
2019-02-22T07:12:12.383Z,808
2019-02-22T07:13:12.393Z,876
2019-02-22T07:14:12.412Z,944
2019-02-22T07:15:12.419Z,1012
2019-02-22T07:16:12.441Z,1076
2019-02-22T07:17:27.109Z,1192
2019-02-22T07:18:12.474Z,1216
2019-02-22T07:19:12.478Z,1204
2019-02-22T07:20:12.490Z,1172
2019-02-22T07:21:12.507Z,1232
2019-02-22T07:22:12.516Z,1316
2019-02-22T07:23:12.530Z,1400
2019-02-22T07:24:12.556Z,1520
2019-02-22T07:25:12.581Z,1496
2019-02-22T07:26:12.675Z,1420
2019-02-22T07:27:12.602Z,1396
2019-02-22T07:28:12.511Z,1396
2019-02-22T07:29:12.615Z,1372
2019-02-22T07:30:12.654Z,1348
2019-02-22T07:31:12.407Z,1340
2019-02-22T07:32:13.601Z,1316
2019-02-22T07:33:27.346Z,1340
2019-02-22T07:34:12.688Z,1380
2019-02-22T07:35:16.822Z,1428
2019-02-22T07:36:12.729Z,1420
2019-02-22T07:37:12.746Z,1428
2019-02-22T07:38:12.747Z,1504
2019-02-22T07:39:12.759Z,1568
2019-02-22T07:40:12.880Z,1660
2019-02-22T07:41:12.870Z,1800
2019-02-22T07:42:12.845Z,1992
2019-02-22T07:43:30.170Z,2212
2019-02-22T07:44:12.834Z,2304
2019-02-22T07:45:12.945Z,2340
2019-02-22T07:47:12.870Z,2032
2019-02-22T07:48:27.555Z,1928
2019-02-22T07:49:12.899Z,1884
2019-02-22T07:50:12.919Z,1904
2019-02-22T07:51:12.676Z,2064
2019-02-22T07:52:12.939Z,2332
2019-02-22T07:53:12.951Z,2820
2019-02-22T07:54:12.971Z,3240
2019-02-22T07:55:27.645Z,4872
2019-02-22T07:56:13.022Z,5816
2019-02-22T07:57:13.021Z,10864
2019-02-22T07:58:15.811Z,2832
2019-02-22T07:59:12.796Z,2828
2019-02-22T08:00:27.714Z,2796
2019-02-22T08:01:29.453Z,2696
2019-02-22T08:03:13.095Z,2576
2019-02-22T08:04:13.113Z,2732
2019-02-22T08:05:16.246Z,2812
2019-02-22T08:06:13.141Z,2936
2019-02-22T08:07:13.244Z,3076
2019-02-22T08:08:13.179Z,2940
2019-02-22T08:09:13.185Z,2912
2019-02-22T08:10:13.194Z,3092
2019-02-22T08:11:13.216Z,2880
2019-02-22T08:13:24.012Z,2872
2019-02-22T08:14:15.100Z,2988
2019-02-22T08:15:13.270Z,2880
2019-02-22T08:16:13.279Z,2960
2019-02-22T08:17:14.654Z,2960
2019-02-22T08:18:13.314Z,3000
2019-02-22T08:19:30.650Z,3008
2019-02-22T08:20:28.001Z,2836
2019-02-22T08:21:13.359Z,2864
2019-02-22T08:22:13.408Z,3120
2019-02-22T08:23:13.379Z,3116
2019-02-22T08:24:13.154Z,3016
2019-02-22T08:25:13.157Z,3000
2019-02-22T08:26:13.426Z,3328
2019-02-22T08:27:13.432Z,3336
2019-02-22T08:28:13.447Z,3216
2019-02-22T08:29:13.468Z,3436
2019-02-22T08:30:13.477Z,3612
2019-02-22T08:31:13.494Z,3512
2019-02-22T08:33:28.193Z,3408
2019-02-22T08:34:13.360Z,3356
2019-02-22T08:35:13.549Z,3428
2019-02-22T08:36:28.231Z,3552
2019-02-22T08:37:13.579Z,3612
2019-02-22T08:38:13.641Z,3804
2019-02-22T08:39:13.612Z,4284
2019-02-22T08:40:13.668Z,4744
2019-02-22T08:41:13.631Z,5316
2019-02-22T08:42:13.646Z,6376
2019-02-22T08:43:13.658Z,10136
2019-02-22T08:44:13.680Z,6888
2019-02-22T08:45:14.562Z,6884
2019-02-22T08:46:13.727Z,8124
2019-02-22T08:47:13.825Z,10432
2019-02-22T08:48:28.404Z,11732
2019-02-22T08:49:13.497Z,10860
2019-02-22T08:50:14.450Z,18784
2019-02-22T08:51:13.779Z,33120
2019-02-22T08:52:28.451Z,33792
2019-02-22T08:53:13.813Z,33408
2019-02-22T08:54:13.819Z,31072
2019-02-22T08:55:13.839Z,30432
2019-02-22T08:56:13.852Z,30848
2019-02-22T08:57:13.867Z,30304
2019-02-22T08:58:28.547Z,29280
2019-02-22T08:59:13.930Z,21312
2019-02-22T09:00:13.919Z,31424
2019-02-22T09:01:13.980Z,31712
2019-02-22T09:02:13.939Z,33600
2019-02-22T09:03:14.024Z,32320
2019-02-22T09:04:14.036Z,26144
2019-02-22T09:06:14.055Z,23936
2019-02-22T09:07:13.784Z,24384
2019-02-22T09:08:28.795Z,25536
2019-02-22T09:09:14.044Z,26880
2019-02-22T09:10:14.076Z,28768
2019-02-22T09:11:14.080Z,31168
2019-02-22T09:12:14.194Z,32736
2019-02-22T09:13:14.136Z,33888
2019-02-22T09:14:14.126Z,34624
2019-02-22T09:15:14.136Z,34688
2019-02-22T09:16:14.155Z,35360
2019-02-22T09:17:14.198Z,35456
2019-02-22T09:18:14.184Z,34432
2019-02-22T09:19:14.201Z,34624
2019-02-22T09:20:14.246Z,34880
2019-02-22T09:21:14.237Z,33728
2019-02-22T09:22:25.204Z,34720
2019-02-22T09:23:28.930Z,34272
2019-02-22T09:24:14.287Z,33824
2019-02-22T09:26:14.321Z,33216
2019-02-22T09:27:14.329Z,33184
2019-02-22T09:28:14.425Z,33024
2019-02-22T09:29:14.377Z,33120
2019-02-22T09:30:14.386Z,32192
2019-02-22T09:31:14.397Z,31712
2019-02-22T09:32:14.163Z,30496
2019-02-22T09:34:14.463Z,29568
2019-02-22T09:35:14.461Z,28160
2019-02-22T09:36:14.479Z,28608
2019-02-22T09:37:14.507Z,29632
2019-02-22T09:39:14.526Z,27776
2019-02-22T09:40:28.983Z,27648
2019-02-22T09:41:14.559Z,27264
2019-02-22T09:42:14.575Z,27136
2019-02-22T09:43:29.255Z,25440
2019-02-22T09:44:29.270Z,24800
2019-02-22T09:45:29.308Z,23776
2019-02-22T09:46:14.658Z,23744
2019-02-22T09:47:14.652Z,24384
2019-02-22T09:48:14.670Z,23680
2019-02-22T09:49:14.704Z,23456
2019-02-22T09:50:14.709Z,23328
2019-02-22T09:51:14.753Z,22816
2019-02-22T09:52:14.741Z,22240
2019-02-22T09:53:14.755Z,21344
2019-02-22T09:54:14.775Z,20448
2019-02-22T09:55:29.449Z,20384
2019-02-22T09:56:14.806Z,20000
2019-02-22T09:57:14.817Z,19808
2019-02-22T09:58:14.831Z,19552
2019-02-22T09:59:14.885Z,19392
2019-02-22T10:00:14.865Z,19008
2019-02-22T10:01:14.894Z,18592
2019-02-22T10:02:14.980Z,18400
2019-02-22T10:03:14.670Z,18304
2019-02-22T10:04:14.964Z,18176
2019-02-22T10:05:14.961Z,17824
2019-02-22T10:06:15.067Z,17504
2019-02-22T10:07:15.080Z,17408
2019-02-22T10:08:29.661Z,17120
2019-02-22T10:09:15.034Z,16928
2019-02-22T10:10:15.069Z,16640
2019-02-22T10:11:29.807Z,16512
2019-02-22T10:12:15.068Z,16320
2019-02-22T10:13:15.081Z,16064
2019-02-22T10:14:15.092Z,16064
2019-02-22T10:15:15.177Z,15628
2019-02-22T10:16:15.127Z,15444
2019-02-22T10:17:29.810Z,15128
2019-02-22T10:18:15.182Z,15072
2019-02-22T10:19:15.181Z,14640
2019-02-22T10:20:29.856Z,14768
2019-02-22T10:21:15.230Z,14588
2019-02-22T10:22:15.237Z,12732
2019-02-22T10:25:15.288Z,13852
2019-02-22T10:26:15.291Z,13464
2019-02-22T10:27:44.639Z,13120
2019-02-22T10:28:39.586Z,12928
2019-02-22T10:29:15.355Z,12740
2019-02-22T10:30:15.367Z,12432
2019-02-22T10:31:15.396Z,11964
2019-02-22T10:32:16.025Z,11688
2019-02-22T10:33:15.416Z,11812
2019-02-22T10:34:15.176Z,11328
2019-02-22T10:37:15.470Z,9664
2019-02-22T10:38:15.489Z,9196
2019-02-22T10:39:15.578Z,8680
2019-02-22T10:40:15.521Z,8284
2019-02-22T10:41:15.534Z,7864
2019-02-22T10:42:15.546Z,7508
2019-02-22T10:43:30.239Z,7104
2019-02-22T10:44:24.766Z,6824
2019-02-22T10:46:30.278Z,6284
2019-02-22T10:47:15.634Z,6056
2019-02-22T10:48:30.307Z,5864
2019-02-22T10:49:15.664Z,5728
2019-02-22T10:50:30.335Z,5516
2019-02-22T10:52:15.703Z,5240
2019-02-22T10:53:15.724Z,5108
2019-02-22T10:54:15.731Z,4984
2019-02-22T10:55:15.757Z,4868
2019-02-22T10:56:15.770Z,4760
2019-02-22T10:57:15.784Z,4676
2019-02-22T10:58:30.537Z,4568
2019-02-22T10:59:15.814Z,4516
2019-02-22T11:00:15.832Z,4448
2019-02-22T11:01:15.844Z,4400
2019-02-22T11:02:15.864Z,4360
2019-02-22T11:03:15.872Z,4336
2019-02-22T11:04:15.918Z,4308
2019-02-22T11:05:30.581Z,4288
2019-02-22T11:06:15.944Z,4276
2019-02-22T11:07:15.945Z,4264
2019-02-22T11:08:15.953Z,4264
2019-02-22T11:09:15.964Z,4264
2019-02-22T11:11:16.077Z,4264
2019-02-22T11:12:16.017Z,4264
2019-02-22T11:13:15.782Z,4268
2019-02-22T11:14:15.795Z,4272
2019-02-22T11:15:15.816Z,4276
2019-02-22T11:16:16.069Z,4276
2019-02-22T11:17:16.078Z,4276
2019-02-22T11:18:16.105Z,4288
2019-02-22T11:19:16.112Z,4296
2019-02-22T11:20:30.792Z,4300
2019-02-22T11:21:16.142Z,4300
2019-02-22T11:22:16.160Z,4308
2019-02-22T11:23:16.170Z,4316
2019-02-22T11:24:30.847Z,4328
2019-02-22T11:25:30.875Z,4336
2019-02-22T11:26:16.337Z,4336
2019-02-22T11:28:16.249Z,4348
2019-02-22T11:29:16.268Z,4348
2019-02-22T11:30:30.940Z,4344
2019-02-22T11:31:17.510Z,4352
2019-02-22T11:32:16.311Z,4356
2019-02-22T11:33:16.325Z,4360
2019-02-22T11:34:16.345Z,4360
2019-02-22T11:35:16.361Z,4368
2019-02-22T11:37:16.463Z,4376
2019-02-22T11:38:31.056Z,4380
2019-02-22T11:39:16.415Z,4380
2019-02-22T11:40:16.444Z,4384
2019-02-22T11:41:16.441Z,4388
2019-02-22T11:42:16.466Z,4396
2019-02-22T11:43:31.137Z,4396
2019-02-22T11:44:16.550Z,4396
2019-02-22T11:45:16.499Z,4404
2019-02-22T11:46:31.170Z,4408
2019-02-22T11:47:16.528Z,4412
2019-02-22T11:48:16.831Z,4424
2019-02-22T11:49:16.563Z,4420
2019-02-22T11:50:16.576Z,4420
2019-02-22T11:51:16.584Z,4424
2019-02-22T11:52:16.597Z,4424
2019-02-22T11:53:16.621Z,4432
2019-02-22T11:54:16.637Z,4436
2019-02-22T11:55:31.310Z,4444
2019-02-22T11:56:16.659Z,4448
2019-02-22T11:57:16.673Z,4452
2019-02-22T11:59:31.368Z,4464
2019-02-22T12:00:16.719Z,4468
2019-02-22T12:02:31.417Z,4476
2019-02-22T12:03:31.002Z,4484
2019-02-22T12:04:16.775Z,4488
2019-02-22T12:05:16.872Z,4496
2019-02-22T12:06:16.809Z,4500
2019-02-22T12:07:16.821Z,4464
2019-02-22T12:08:16.600Z,4512
2019-02-22T12:09:16.957Z,4512
2019-02-22T12:10:16.869Z,4516
2019-02-22T12:11:16.882Z,4520
2019-02-22T12:12:16.895Z,4524
2019-02-22T12:13:16.910Z,4528
2019-02-22T12:14:16.927Z,4532
2019-02-22T12:15:33.859Z,4540
2019-02-22T12:16:16.953Z,4544
2019-02-22T12:17:17.055Z,4548
2019-02-22T12:18:31.645Z,4556
2019-02-22T12:19:17.046Z,4560
2019-02-22T12:20:17.014Z,4560
2019-02-22T12:21:17.037Z,4564
2019-02-22T12:22:17.046Z,4568
2019-02-22T12:23:17.064Z,4540
2019-02-22T12:24:17.077Z,4540
2019-02-22T12:25:31.768Z,4572
2019-02-22T12:26:32.134Z,4564
2019-02-22T12:27:19.070Z,4580
2019-02-22T12:28:17.140Z,4600
2019-02-22T12:29:31.820Z,4604
2019-02-22T12:30:17.176Z,4608
2019-02-22T12:31:17.182Z,4608
2019-02-22T12:32:17.270Z,4608
2019-02-22T12:33:31.868Z,4616
2019-02-22T12:34:17.225Z,4616
2019-02-22T12:35:17.242Z,4616
2019-02-22T12:36:31.922Z,4620
2019-02-22T12:37:17.275Z,4624
2019-02-22T12:38:31.945Z,4636
2019-02-22T12:39:17.304Z,4636
2019-02-22T12:40:17.311Z,4636
2019-02-22T12:41:17.330Z,4640
2019-02-22T12:42:17.344Z,4644
2019-02-22T12:43:17.380Z,4648
2019-02-22T12:45:17.391Z,4656
2019-02-22T12:46:17.398Z,4656
2019-02-22T12:47:17.414Z,4660
2019-02-22T12:48:17.424Z,4664
2019-02-22T12:49:17.456Z,4668
2019-02-22T12:50:17.456Z,4668
2019-02-22T12:51:17.481Z,4672
2019-02-22T12:52:17.491Z,4676
2019-02-22T12:53:17.502Z,4680
2019-02-22T12:54:17.521Z,4692
2019-02-22T12:55:17.735Z,4696
2019-02-22T12:56:17.547Z,4700
2019-02-22T12:57:17.567Z,4708
2019-02-22T12:58:32.243Z,4712
2019-02-22T12:59:17.591Z,4720
2019-02-22T13:00:17.609Z,4724
2019-02-22T13:01:17.628Z,4724
2019-02-22T13:02:17.649Z,4724
2019-02-22T13:03:32.419Z,4772
2019-02-22T13:05:32.357Z,4788
2019-02-22T13:06:17.691Z,4800
2019-02-22T13:07:17.718Z,4804
2019-02-22T13:08:17.722Z,4812
2019-02-22T13:09:17.749Z,4816
2019-02-22T13:10:17.750Z,4844
2019-02-22T13:11:17.767Z,4840
2019-02-22T13:12:22.200Z,4856
2019-02-22T13:14:18.713Z,4860
2019-02-22T13:15:21.616Z,4864
2019-02-22T13:17:17.936Z,4844
2019-02-22T13:18:17.669Z,4860
2019-02-22T13:19:17.885Z,4872
2019-02-22T13:20:17.898Z,4868
2019-02-22T13:21:32.577Z,4868
2019-02-22T13:22:17.928Z,4868
2019-02-22T13:24:17.962Z,4848
2019-02-22T13:25:18.074Z,4848
2019-02-22T13:26:20.452Z,4836
2019-02-22T13:27:18.003Z,4832
2019-02-22T13:28:17.775Z,4836
2019-02-22T13:29:18.150Z,4828
2019-02-22T13:30:18.127Z,4828
2019-02-22T13:31:32.947Z,4828
2019-02-22T13:32:17.835Z,4828
2019-02-22T13:33:18.183Z,4832
2019-02-22T13:34:18.111Z,4788
2019-02-22T13:35:18.437Z,4824
2019-02-22T13:36:18.140Z,4836
2019-02-22T13:37:32.813Z,4836
2019-02-22T13:38:18.161Z,4832
2019-02-22T13:39:18.183Z,4832
2019-02-22T13:40:18.193Z,4836
2019-02-22T13:41:18.213Z,4848
2019-02-22T13:42:18.236Z,4860
2019-02-22T13:43:18.235Z,4872
2019-02-22T13:44:18.270Z,4880
2019-02-22T13:46:18.288Z,4896
2019-02-22T13:47:18.309Z,4880
2019-02-22T13:48:18.356Z,4892
2019-02-22T13:50:18.343Z,4860
2019-02-22T13:51:18.478Z,4852
2019-02-22T13:52:18.371Z,4844
2019-02-22T13:53:32.895Z,4840
2019-02-22T13:54:18.427Z,4836
2019-02-22T13:55:18.411Z,4828
2019-02-22T13:56:29.028Z,4836
2019-02-22T13:57:33.127Z,4828
2019-02-22T13:58:18.469Z,4820
2019-02-22T13:59:18.223Z,4816
2019-02-22T14:00:18.506Z,4812
2019-02-22T14:01:33.163Z,4800
2019-02-22T14:02:18.526Z,4804
2019-02-22T14:03:18.574Z,4796
2019-02-22T14:04:18.559Z,4792
2019-02-22T14:05:33.225Z,4792
2019-02-22T14:06:18.575Z,4780
2019-02-22T14:08:33.270Z,4796
2019-02-22T14:09:18.627Z,4796
2019-02-22T14:10:18.637Z,4788
2019-02-22T14:11:34.006Z,4784
2019-02-22T14:12:18.665Z,4784
2019-02-22T14:13:18.686Z,4776
2019-02-22T14:14:33.363Z,4776
2019-02-22T14:16:18.725Z,4772
2019-02-22T14:17:18.798Z,4780
2019-02-22T14:18:18.758Z,4788
2019-02-22T14:19:18.768Z,4776
2019-02-22T14:20:18.786Z,3996
2019-02-22T14:21:34.996Z,4656
2019-02-22T14:22:18.813Z,4760
2019-02-22T14:23:18.830Z,4744
2019-02-22T14:24:18.852Z,4720
2019-02-22T14:25:18.858Z,4764
2019-02-22T14:26:18.872Z,4776
2019-02-22T14:27:18.906Z,4784
2019-02-22T14:28:19.387Z,4780
2019-02-22T14:29:18.919Z,4728
2019-02-22T14:30:18.939Z,4640
2019-02-22T14:31:33.612Z,4640
2019-02-22T14:32:18.974Z,4688
2019-02-22T14:33:33.640Z,4684
2019-02-22T14:34:18.991Z,4696
2019-02-22T14:35:19.004Z,4696
2019-02-22T14:36:19.203Z,4708
2019-02-22T14:37:19.340Z,4684
2019-02-22T14:38:19.163Z,4680
2019-02-22T14:39:19.083Z,4704
2019-02-22T14:40:33.747Z,4688
2019-02-22T14:42:19.111Z,4644
2019-02-22T14:43:23.927Z,4604
2019-02-22T14:44:19.138Z,4572
2019-02-22T14:45:19.158Z,4544
2019-02-22T14:46:30.271Z,4428
2019-02-22T14:47:19.184Z,4468
2019-02-22T14:48:19.297Z,4508
2019-02-22T14:49:18.972Z,4544